sensor_id;sensor_type;location;lat;lon;timestamp;temperature;humidity
66088;DHT22;52872;52.994;6.940;2024-02-14T00:01:16;7.20;99.90
66088;DHT22;52872;52.994;6.940;2024-02-14T00:03:43;7.20;99.90
66088;DHT22;52872;52.994;6.940;2024-02-14T00:06:10;7.20;99.90
66088;DHT22;52872;52.994;6.940;2024-02-14T00:08:39;7.20;99.90
66088;DHT22;52872;52.994;6.940;2024-02-14T00:11:06;7.20;99.90
66088;DHT22;52872;52.994;6.940;2024-02-14T00:13:34;7.20;99.90
66088;DHT22;52872;52.994;6.940;2024-02-14T00:16:02;7.20;99.90
66088;DHT22;52872;52.994;6.940;2024-02-14T00:18:29;7.10;99.90
66088;DHT22;52872;52.994;6.940;2024-02-14T00:20:57;7.20;99.90
66088;DHT22;52872;52.994;6.940;2024-02-14T00:23:24;7.20;99.90
66088;DHT22;52872;52.994;6.940;2024-02-14T00:25:52;7.20;99.90
66088;DHT22;52872;52.994;6.940;2024-02-14T00:28:19;7.20;99.90
66088;DHT22;52872;52.994;6.940;2024-02-14T00:30:46;7.20;99.90
66088;DHT22;52872;52.994;6.940;2024-02-14T00:33:13;7.20;99.90
66088;DHT22;52872;52.994;6.940;2024-02-14T00:35:41;7.20;99.90
66088;DHT22;52872;52.994;6.940;2024-02-14T00:38:08;7.20;99.90
66088;DHT22;52872;52.994;6.940;2024-02-14T00:40:36;7.20;99.90
66088;DHT22;52872;52.994;6.940;2024-02-14T00:43:03;7.20;99.90
66088;DHT22;52872;52.994;6.940;2024-02-14T00:45:31;7.20;99.90
66088;DHT22;52872;52.994;6.940;2024-02-14T00:47:58;7.20;99.90
66088;DHT22;52872;52.994;6.940;2024-02-14T00:50:25;7.20;99.90
66088;DHT22;52872;52.994;6.940;2024-02-14T00:52:53;7.10;99.90
66088;DHT22;52872;52.994;6.940;2024-02-14T00:55:20;7.20;99.90
66088;DHT22;52872;52.994;6.940;2024-02-14T00:57:47;7.20;99.90
66088;DHT22;52872;52.994;6.940;2024-02-14T01:00:16;7.10;99.90
66088;DHT22;52872;52.994;6.940;2024-02-14T01:02:44;7.20;99.90
66088;DHT22;52872;52.994;6.940;2024-02-14T01:05:11;7.20;99.90
66088;DHT22;52872;52.994;6.940;2024-02-14T01:07:38;7.20;99.90
66088;DHT22;52872;52.994;6.940;2024-02-14T01:10:06;7.20;99.90
66088;DHT22;52872;52.994;6.940;2024-02-14T01:12:33;7.20;99.90
66088;DHT22;52872;52.994;6.940;2024-02-14T01:15:00;7.20;99.90
66088;DHT22;52872;52.994;6.940;2024-02-14T01:17:28;7.30;99.90
66088;DHT22;52872;52.994;6.940;2024-02-14T01:19:55;7.30;99.90
66088;DHT22;52872;52.994;6.940;2024-02-14T01:22:22;7.30;99.90
66088;DHT22;52872;52.994;6.940;2024-02-14T01:24:50;7.30;99.90
66088;DHT22;52872;52.994;6.940;2024-02-14T01:27:17;7.30;99.90
66088;DHT22;52872;52.994;6.940;2024-02-14T01:29:45;7.30;99.90
66088;DHT22;52872;52.994;6.940;2024-02-14T01:32:12;7.30;99.90
66088;DHT22;52872;52.994;6.940;2024-02-14T01:34:40;7.30;99.90
66088;DHT22;52872;52.994;6.940;2024-02-14T01:37:09;7.30;99.90
66088;DHT22;52872;52.994;6.940;2024-02-14T01:39:36;7.40;99.90
66088;DHT22;52872;52.994;6.940;2024-02-14T01:42:04;7.40;99.90
66088;DHT22;52872;52.994;6.940;2024-02-14T01:44:34;7.40;99.90
66088;DHT22;52872;52.994;6.940;2024-02-14T01:47:03;7.40;99.90
66088;DHT22;52872;52.994;6.940;2024-02-14T01:49:31;7.40;99.90
66088;DHT22;52872;52.994;6.940;2024-02-14T01:52:02;7.40;99.90
66088;DHT22;52872;52.994;6.940;2024-02-14T01:54:30;7.50;99.90
66088;DHT22;52872;52.994;6.940;2024-02-14T01:56:58;7.50;99.90
66088;DHT22;52872;52.994;6.940;2024-02-14T01:59:26;7.50;99.90
66088;DHT22;52872;52.994;6.940;2024-02-14T02:04:56;7.50;99.90
66088;DHT22;52872;52.994;6.940;2024-02-14T02:07:24;7.60;99.90
66088;DHT22;52872;52.994;6.940;2024-02-14T02:09:52;7.60;99.90
66088;DHT22;52872;52.994;6.940;2024-02-14T02:12:21;7.60;99.90
66088;DHT22;52872;52.994;6.940;2024-02-14T02:14:54;7.70;99.90
66088;DHT22;52872;52.994;6.940;2024-02-14T02:17:21;7.70;99.90
66088;DHT22;52872;52.994;6.940;2024-02-14T02:19:49;7.70;99.90
66088;DHT22;52872;52.994;6.940;2024-02-14T02:22:16;7.70;99.90
66088;DHT22;52872;52.994;6.940;2024-02-14T02:24:44;7.70;99.90
66088;DHT22;52872;52.994;6.940;2024-02-14T02:27:12;7.80;99.90
66088;DHT22;52872;52.994;6.940;2024-02-14T02:29:40;7.80;99.90
66088;DHT22;52872;52.994;6.940;2024-02-14T02:32:07;7.80;99.90
66088;DHT22;52872;52.994;6.940;2024-02-14T02:34:36;7.90;99.90
66088;DHT22;52872;52.994;6.940;2024-02-14T02:37:06;7.90;99.90
66088;DHT22;52872;52.994;6.940;2024-02-14T02:39:34;7.90;99.90
66088;DHT22;52872;52.994;6.940;2024-02-14T02:42:03;8.00;99.90
66088;DHT22;52872;52.994;6.940;2024-02-14T02:44:31;8.00;99.90
66088;DHT22;52872;52.994;6.940;2024-02-14T02:46:58;8.00;99.90
66088;DHT22;52872;52.994;6.940;2024-02-14T02:49:27;8.00;99.90
66088;DHT22;52872;52.994;6.940;2024-02-14T02:51:56;8.00;99.90
66088;DHT22;52872;52.994;6.940;2024-02-14T02:54:23;8.00;99.90
66088;DHT22;52872;52.994;6.940;2024-02-14T02:56:50;8.00;99.90
66088;DHT22;52872;52.994;6.940;2024-02-14T02:59:17;8.10;99.90
66088;DHT22;52872;52.994;6.940;2024-02-14T03:01:44;8.10;99.90
66088;DHT22;52872;52.994;6.940;2024-02-14T03:04:16;8.10;99.90
66088;DHT22;52872;52.994;6.940;2024-02-14T03:06:43;8.10;99.90
66088;DHT22;52872;52.994;6.940;2024-02-14T03:09:13;8.10;99.90
66088;DHT22;52872;52.994;6.940;2024-02-14T03:11:41;8.10;99.90
66088;DHT22;52872;52.994;6.940;2024-02-14T03:14:08;8.10;99.90
66088;DHT22;52872;52.994;6.940;2024-02-14T03:16:36;8.10;99.90
66088;DHT22;52872;52.994;6.940;2024-02-14T03:19:04;8.10;99.90
66088;DHT22;52872;52.994;6.940;2024-02-14T03:21:32;8.20;99.90
66088;DHT22;52872;52.994;6.940;2024-02-14T03:23:59;8.20;99.90
66088;DHT22;52872;52.994;6.940;2024-02-14T03:26:27;8.20;99.90
66088;DHT22;52872;52.994;6.940;2024-02-14T03:28:54;8.20;99.90
66088;DHT22;52872;52.994;6.940;2024-02-14T03:31:21;8.30;99.90
66088;DHT22;52872;52.994;6.940;2024-02-14T03:33:49;8.20;99.90
66088;DHT22;52872;52.994;6.940;2024-02-14T03:36:16;8.30;99.90
66088;DHT22;52872;52.994;6.940;2024-02-14T03:38:43;8.30;99.90
66088;DHT22;52872;52.994;6.940;2024-02-14T03:41:10;8.40;99.90
66088;DHT22;52872;52.994;6.940;2024-02-14T03:43:38;8.40;99.90
66088;DHT22;52872;52.994;6.940;2024-02-14T03:46:05;8.40;99.90
66088;DHT22;52872;52.994;6.940;2024-02-14T03:48:32;8.40;99.90
66088;DHT22;52872;52.994;6.940;2024-02-14T03:51:00;8.50;99.90
66088;DHT22;52872;52.994;6.940;2024-02-14T03:53:27;8.50;99.90
66088;DHT22;52872;52.994;6.940;2024-02-14T03:55:54;8.50;99.90
66088;DHT22;52872;52.994;6.940;2024-02-14T03:58:21;8.50;99.90
66088;DHT22;52872;52.994;6.940;2024-02-14T04:00:52;8.50;99.90
66088;DHT22;52872;52.994;6.940;2024-02-14T04:03:19;8.60;99.90
66088;DHT22;52872;52.994;6.940;2024-02-14T04:05:46;8.60;99.90
66088;DHT22;52872;52.994;6.940;2024-02-14T04:08:15;8.70;99.90
66088;DHT22;52872;52.994;6.940;2024-02-14T04:10:42;8.70;99.90
66088;DHT22;52872;52.994;6.940;2024-02-14T04:13:11;8.70;99.90
66088;DHT22;52872;52.994;6.940;2024-02-14T04:15:38;8.70;99.90
66088;DHT22;52872;52.994;6.940;2024-02-14T04:18:05;8.70;99.90
66088;DHT22;52872;52.994;6.940;2024-02-14T04:20:36;8.70;99.90
66088;DHT22;52872;52.994;6.940;2024-02-14T04:23:04;8.80;99.90
66088;DHT22;52872;52.994;6.940;2024-02-14T04:25:35;8.80;99.90
66088;DHT22;52872;52.994;6.940;2024-02-14T04:28:05;8.80;99.90
66088;DHT22;52872;52.994;6.940;2024-02-14T04:30:33;8.80;99.90
66088;DHT22;52872;52.994;6.940;2024-02-14T04:33:00;8.80;99.90
66088;DHT22;52872;52.994;6.940;2024-02-14T04:35:28;8.90;99.90
66088;DHT22;52872;52.994;6.940;2024-02-14T04:37:55;8.90;99.90
66088;DHT22;52872;52.994;6.940;2024-02-14T04:40:22;8.90;99.90
66088;DHT22;52872;52.994;6.940;2024-02-14T04:42:49;8.90;99.90
66088;DHT22;52872;52.994;6.940;2024-02-14T04:45:17;9.00;99.90
66088;DHT22;52872;52.994;6.940;2024-02-14T04:47:44;9.00;99.90
66088;DHT22;52872;52.994;6.940;2024-02-14T04:50:11;9.10;99.90
66088;DHT22;52872;52.994;6.940;2024-02-14T04:52:38;9.10;99.90
66088;DHT22;52872;52.994;6.940;2024-02-14T04:55:06;9.10;99.90
66088;DHT22;52872;52.994;6.940;2024-02-14T04:57:33;9.00;99.90
66088;DHT22;52872;52.994;6.940;2024-02-14T05:00:03;9.10;99.90
66088;DHT22;52872;52.994;6.940;2024-02-14T05:02:32;9.10;99.90
66088;DHT22;52872;52.994;6.940;2024-02-14T05:04:59;9.20;99.90
66088;DHT22;52872;52.994;6.940;2024-02-14T05:07:26;9.20;99.90
66088;DHT22;52872;52.994;6.940;2024-02-14T05:09:53;9.20;99.90
66088;DHT22;52872;52.994;6.940;2024-02-14T05:12:23;9.20;99.90
66088;DHT22;52872;52.994;6.940;2024-02-14T05:14:50;9.20;99.90
66088;DHT22;52872;52.994;6.940;2024-02-14T05:17:17;9.30;99.90
66088;DHT22;52872;52.994;6.940;2024-02-14T05:19:44;9.30;99.90
66088;DHT22;52872;52.994;6.940;2024-02-14T05:22:11;9.30;99.90
66088;DHT22;52872;52.994;6.940;2024-02-14T05:24:39;9.30;99.90
66088;DHT22;52872;52.994;6.940;2024-02-14T05:27:06;9.40;99.90
66088;DHT22;52872;52.994;6.940;2024-02-14T05:29:33;9.40;99.90
66088;DHT22;52872;52.994;6.940;2024-02-14T05:32:02;9.40;99.90
66088;DHT22;52872;52.994;6.940;2024-02-14T05:34:29;9.50;99.90
66088;DHT22;52872;52.994;6.940;2024-02-14T05:36:56;9.50;99.90
66088;DHT22;52872;52.994;6.940;2024-02-14T05:39:23;9.50;99.90
66088;DHT22;52872;52.994;6.940;2024-02-14T05:41:51;9.50;99.90
66088;DHT22;52872;52.994;6.940;2024-02-14T05:44:21;9.50;99.90
66088;DHT22;52872;52.994;6.940;2024-02-14T05:46:49;9.60;99.90
66088;DHT22;52872;52.994;6.940;2024-02-14T05:49:16;9.60;99.90
66088;DHT22;52872;52.994;6.940;2024-02-14T05:51:44;9.60;99.90
66088;DHT22;52872;52.994;6.940;2024-02-14T05:54:11;10.00;99.90
66088;DHT22;52872;52.994;6.940;2024-02-14T05:56:38;9.70;99.90
66088;DHT22;52872;52.994;6.940;2024-02-14T05:59:05;9.70;99.90
66088;DHT22;52872;52.994;6.940;2024-02-14T06:01:33;9.70;99.90
66088;DHT22;52872;52.994;6.940;2024-02-14T06:04:00;9.70;99.90
66088;DHT22;52872;52.994;6.940;2024-02-14T06:06:27;9.70;99.90
66088;DHT22;52872;52.994;6.940;2024-02-14T06:08:55;9.80;99.90
66088;DHT22;52872;52.994;6.940;2024-02-14T06:11:25;9.80;99.90
66088;DHT22;52872;52.994;6.940;2024-02-14T06:13:52;9.80;99.90
66088;DHT22;52872;52.994;6.940;2024-02-14T06:16:20;9.80;99.90
66088;DHT22;52872;52.994;6.940;2024-02-14T06:18:47;9.80;99.90
66088;DHT22;52872;52.994;6.940;2024-02-14T06:21:14;9.80;99.90
66088;DHT22;52872;52.994;6.940;2024-02-14T06:23:41;9.90;99.90
66088;DHT22;52872;52.994;6.940;2024-02-14T06:26:09;9.80;99.90
66088;DHT22;52872;52.994;6.940;2024-02-14T06:28:36;9.90;99.90
66088;DHT22;52872;52.994;6.940;2024-02-14T06:31:04;9.90;99.90
66088;DHT22;52872;52.994;6.940;2024-02-14T06:33:31;9.90;99.90
66088;DHT22;52872;52.994;6.940;2024-02-14T06:35:58;9.90;99.90
66088;DHT22;52872;52.994;6.940;2024-02-14T06:38:26;9.90;99.90
66088;DHT22;52872;52.994;6.940;2024-02-14T06:40:53;9.90;99.90
66088;DHT22;52872;52.994;6.940;2024-02-14T06:43:22;9.90;99.90
66088;DHT22;52872;52.994;6.940;2024-02-14T06:45:49;10.00;99.90
66088;DHT22;52872;52.994;6.940;2024-02-14T06:48:21;10.00;99.90
66088;DHT22;52872;52.994;6.940;2024-02-14T06:50:51;10.00;99.90
66088;DHT22;52872;52.994;6.940;2024-02-14T06:53:18;10.00;99.90
66088;DHT22;52872;52.994;6.940;2024-02-14T06:55:45;10.00;99.90
66088;DHT22;52872;52.994;6.940;2024-02-14T06:58:13;10.00;99.90
66088;DHT22;52872;52.994;6.940;2024-02-14T07:00:40;10.00;99.90
66088;DHT22;52872;52.994;6.940;2024-02-14T07:03:08;10.10;99.90
66088;DHT22;52872;52.994;6.940;2024-02-14T07:05:36;10.10;99.90
66088;DHT22;52872;52.994;6.940;2024-02-14T07:08:03;10.10;99.90
66088;DHT22;52872;52.994;6.940;2024-02-14T07:10:31;10.10;99.90
66088;DHT22;52872;52.994;6.940;2024-02-14T07:13:00;10.10;99.90
66088;DHT22;52872;52.994;6.940;2024-02-14T07:15:27;10.10;99.90
66088;DHT22;52872;52.994;6.940;2024-02-14T07:17:55;10.10;99.90
66088;DHT22;52872;52.994;6.940;2024-02-14T07:20:24;10.20;99.90
66088;DHT22;52872;52.994;6.940;2024-02-14T07:22:53;10.20;99.90
66088;DHT22;52872;52.994;6.940;2024-02-14T07:25:22;10.20;99.90
66088;DHT22;52872;52.994;6.940;2024-02-14T07:27:49;10.20;99.90
66088;DHT22;52872;52.994;6.940;2024-02-14T07:30:17;10.30;99.90
66088;DHT22;52872;52.994;6.940;2024-02-14T07:32:45;10.30;99.90
66088;DHT22;52872;52.994;6.940;2024-02-14T07:35:12;10.30;99.90
66088;DHT22;52872;52.994;6.940;2024-02-14T07:37:43;10.30;99.90
66088;DHT22;52872;52.994;6.940;2024-02-14T07:40:12;10.30;99.90
66088;DHT22;52872;52.994;6.940;2024-02-14T07:42:41;10.40;99.90
66088;DHT22;52872;52.994;6.940;2024-02-14T07:45:08;10.40;99.90
66088;DHT22;52872;52.994;6.940;2024-02-14T07:47:35;10.40;99.90
66088;DHT22;52872;52.994;6.940;2024-02-14T07:50:03;10.50;99.90
66088;DHT22;52872;52.994;6.940;2024-02-14T07:52:30;10.50;99.90
66088;DHT22;52872;52.994;6.940;2024-02-14T07:55:01;10.50;99.90
66088;DHT22;52872;52.994;6.940;2024-02-14T07:57:27;10.50;99.90
66088;DHT22;52872;52.994;6.940;2024-02-14T07:59:55;10.50;99.90
66088;DHT22;52872;52.994;6.940;2024-02-14T08:02:22;10.50;99.90
66088;DHT22;52872;52.994;6.940;2024-02-14T08:04:49;10.50;99.90
66088;DHT22;52872;52.994;6.940;2024-02-14T08:07:18;10.60;99.90
66088;DHT22;52872;52.994;6.940;2024-02-14T08:09:46;10.60;99.90
66088;DHT22;52872;52.994;6.940;2024-02-14T08:12:13;10.60;99.90
66088;DHT22;52872;52.994;6.940;2024-02-14T08:14:41;10.60;99.90
66088;DHT22;52872;52.994;6.940;2024-02-14T08:17:08;10.60;99.90
66088;DHT22;52872;52.994;6.940;2024-02-14T08:19:36;10.60;99.90
66088;DHT22;52872;52.994;6.940;2024-02-14T08:22:03;10.60;99.90
66088;DHT22;52872;52.994;6.940;2024-02-14T08:24:30;10.60;99.90
66088;DHT22;52872;52.994;6.940;2024-02-14T08:26:58;10.70;99.90
66088;DHT22;52872;52.994;6.940;2024-02-14T08:29:25;10.60;99.90
66088;DHT22;52872;52.994;6.940;2024-02-14T08:31:52;10.60;99.90
66088;DHT22;52872;52.994;6.940;2024-02-14T08:34:20;10.70;99.90
66088;DHT22;52872;52.994;6.940;2024-02-14T08:36:47;10.70;99.90
66088;DHT22;52872;52.994;6.940;2024-02-14T08:39:14;10.70;99.90
66088;DHT22;52872;52.994;6.940;2024-02-14T08:41:44;10.70;99.90
66088;DHT22;52872;52.994;6.940;2024-02-14T08:44:11;10.70;99.90
66088;DHT22;52872;52.994;6.940;2024-02-14T08:46:38;10.80;99.90
66088;DHT22;52872;52.994;6.940;2024-02-14T08:49:06;10.80;99.90
66088;DHT22;52872;52.994;6.940;2024-02-14T08:51:38;10.90;99.90
66088;DHT22;52872;52.994;6.940;2024-02-14T08:54:05;10.90;99.90
66088;DHT22;52872;52.994;6.940;2024-02-14T08:56:33;10.90;99.90
66088;DHT22;52872;52.994;6.940;2024-02-14T08:59:02;11.00;99.90
66088;DHT22;52872;52.994;6.940;2024-02-14T09:01:30;11.00;99.90
66088;DHT22;52872;52.994;6.940;2024-02-14T09:03:58;11.00;99.90
66088;DHT22;52872;52.994;6.940;2024-02-14T09:06:26;10.90;99.90
66088;DHT22;52872;52.994;6.940;2024-02-14T09:08:53;10.90;99.90
66088;DHT22;52872;52.994;6.940;2024-02-14T09:11:22;10.90;99.90
66088;DHT22;52872;52.994;6.940;2024-02-14T09:13:49;10.90;99.90
66088;DHT22;52872;52.994;6.940;2024-02-14T09:16:20;10.90;99.90
66088;DHT22;52872;52.994;6.940;2024-02-14T09:18:49;10.90;99.90
66088;DHT22;52872;52.994;6.940;2024-02-14T09:21:17;10.90;99.90
66088;DHT22;52872;52.994;6.940;2024-02-14T09:23:47;10.90;99.90
66088;DHT22;52872;52.994;6.940;2024-02-14T09:26:14;10.90;99.90
66088;DHT22;52872;52.994;6.940;2024-02-14T09:28:43;11.00;99.90
66088;DHT22;52872;52.994;6.940;2024-02-14T09:31:10;11.00;99.90
66088;DHT22;52872;52.994;6.940;2024-02-14T09:33:39;11.00;99.90
66088;DHT22;52872;52.994;6.940;2024-02-14T09:36:07;11.00;99.90
66088;DHT22;52872;52.994;6.940;2024-02-14T09:38:35;11.00;99.90
66088;DHT22;52872;52.994;6.940;2024-02-14T09:41:15;11.00;99.90
66088;DHT22;52872;52.994;6.940;2024-02-14T09:43:44;11.00;99.90
66088;DHT22;52872;52.994;6.940;2024-02-14T09:46:15;11.00;99.90
66088;DHT22;52872;52.994;6.940;2024-02-14T09:48:44;11.10;99.90
66088;DHT22;52872;52.994;6.940;2024-02-14T09:51:12;11.10;99.90
66088;DHT22;52872;52.994;6.940;2024-02-14T09:53:40;11.10;99.90
66088;DHT22;52872;52.994;6.940;2024-02-14T09:56:11;11.10;99.90
66088;DHT22;52872;52.994;6.940;2024-02-14T09:58:40;11.20;99.90
66088;DHT22;52872;52.994;6.940;2024-02-14T10:01:08;11.20;99.90
66088;DHT22;52872;52.994;6.940;2024-02-14T10:03:36;11.20;99.90
66088;DHT22;52872;52.994;6.940;2024-02-14T10:06:04;11.20;99.90
66088;DHT22;52872;52.994;6.940;2024-02-14T10:08:32;11.20;99.90
66088;DHT22;52872;52.994;6.940;2024-02-14T10:10:59;11.30;99.90
66088;DHT22;52872;52.994;6.940;2024-02-14T10:13:27;11.20;99.90
66088;DHT22;52872;52.994;6.940;2024-02-14T10:15:56;11.20;99.90
66088;DHT22;52872;52.994;6.940;2024-02-14T10:18:23;11.20;99.90
66088;DHT22;52872;52.994;6.940;2024-02-14T10:20:56;11.20;99.90
66088;DHT22;52872;52.994;6.940;2024-02-14T10:23:24;11.20;99.90
66088;DHT22;52872;52.994;6.940;2024-02-14T10:25:54;11.30;99.90
66088;DHT22;52872;52.994;6.940;2024-02-14T10:28:24;11.30;99.90
66088;DHT22;52872;52.994;6.940;2024-02-14T10:30:55;11.30;99.90
66088;DHT22;52872;52.994;6.940;2024-02-14T10:33:23;11.40;99.90
66088;DHT22;52872;52.994;6.940;2024-02-14T10:35:54;11.50;99.90
66088;DHT22;52872;52.994;6.940;2024-02-14T10:38:24;11.50;99.90
66088;DHT22;52872;52.994;6.940;2024-02-14T10:40:53;11.50;99.90
66088;DHT22;52872;52.994;6.940;2024-02-14T10:43:21;11.60;99.90
66088;DHT22;52872;52.994;6.940;2024-02-14T10:45:48;11.60;99.90
66088;DHT22;52872;52.994;6.940;2024-02-14T10:48:16;11.60;99.90
66088;DHT22;52872;52.994;6.940;2024-02-14T10:50:47;11.60;99.90
66088;DHT22;52872;52.994;6.940;2024-02-14T10:53:16;11.60;99.90
66088;DHT22;52872;52.994;6.940;2024-02-14T10:55:48;11.60;99.90
66088;DHT22;52872;52.994;6.940;2024-02-14T10:58:16;11.60;99.90
66088;DHT22;52872;52.994;6.940;2024-02-14T11:00:44;11.60;99.90
66088;DHT22;52872;52.994;6.940;2024-02-14T11:03:13;11.60;99.90
66088;DHT22;52872;52.994;6.940;2024-02-14T11:05:46;11.60;99.90
66088;DHT22;52872;52.994;6.940;2024-02-14T11:08:20;11.60;99.90
66088;DHT22;52872;52.994;6.940;2024-02-14T11:10:55;11.50;99.90
66088;DHT22;52872;52.994;6.940;2024-02-14T11:13:27;11.50;99.90
66088;DHT22;52872;52.994;6.940;2024-02-14T11:15:55;11.60;99.90
66088;DHT22;52872;52.994;6.940;2024-02-14T11:18:29;11.60;99.90
66088;DHT22;52872;52.994;6.940;2024-02-14T11:21:03;11.70;99.90
66088;DHT22;52872;52.994;6.940;2024-02-14T11:23:31;11.80;99.90
66088;DHT22;52872;52.994;6.940;2024-02-14T11:26:03;11.80;99.90
66088;DHT22;52872;52.994;6.940;2024-02-14T11:28:37;11.70;99.90
66088;DHT22;52872;52.994;6.940;2024-02-14T11:31:07;11.60;99.90
66088;DHT22;52872;52.994;6.940;2024-02-14T11:33:39;11.70;99.90
66088;DHT22;52872;52.994;6.940;2024-02-14T11:36:10;11.60;99.90
66088;DHT22;52872;52.994;6.940;2024-02-14T11:38:40;11.60;99.90
66088;DHT22;52872;52.994;6.940;2024-02-14T11:41:10;11.60;99.90
66088;DHT22;52872;52.994;6.940;2024-02-14T11:43:37;11.60;99.90
66088;DHT22;52872;52.994;6.940;2024-02-14T11:46:06;11.60;99.90
66088;DHT22;52872;52.994;6.940;2024-02-14T11:48:33;11.60;99.90
66088;DHT22;52872;52.994;6.940;2024-02-14T11:51:01;11.70;99.90
66088;DHT22;52872;52.994;6.940;2024-02-14T11:53:29;11.70;99.90
66088;DHT22;52872;52.994;6.940;2024-02-14T11:55:56;11.70;99.90
66088;DHT22;52872;52.994;6.940;2024-02-14T11:58:24;11.70;99.90
66088;DHT22;52872;52.994;6.940;2024-02-14T12:00:51;11.60;99.90
66088;DHT22;52872;52.994;6.940;2024-02-14T12:03:24;11.60;99.90
66088;DHT22;52872;52.994;6.940;2024-02-14T12:05:53;11.60;99.90
66088;DHT22;52872;52.994;6.940;2024-02-14T12:08:21;11.60;99.90
66088;DHT22;52872;52.994;6.940;2024-02-14T12:10:49;11.70;99.90
66088;DHT22;52872;52.994;6.940;2024-02-14T12:13:21;11.70;99.90
66088;DHT22;52872;52.994;6.940;2024-02-14T12:15:51;11.70;99.90
66088;DHT22;52872;52.994;6.940;2024-02-14T12:18:20;11.80;99.90
66088;DHT22;52872;52.994;6.940;2024-02-14T12:20:48;11.80;99.90
66088;DHT22;52872;52.994;6.940;2024-02-14T12:23:21;11.80;99.90
66088;DHT22;52872;52.994;6.940;2024-02-14T12:25:49;11.80;99.90
66088;DHT22;52872;52.994;6.940;2024-02-14T12:28:17;11.80;99.90
66088;DHT22;52872;52.994;6.940;2024-02-14T12:30:47;11.90;99.90
66088;DHT22;52872;52.994;6.940;2024-02-14T12:33:16;11.90;99.90
66088;DHT22;52872;52.994;6.940;2024-02-14T12:35:47;11.90;99.90
66088;DHT22;52872;52.994;6.940;2024-02-14T12:38:16;11.90;99.90
66088;DHT22;52872;52.994;6.940;2024-02-14T12:40:44;11.90;99.90
66088;DHT22;52872;52.994;6.940;2024-02-14T12:43:13;11.90;99.90
66088;DHT22;52872;52.994;6.940;2024-02-14T12:45:41;11.80;99.90
66088;DHT22;52872;52.994;6.940;2024-02-14T12:48:10;11.90;99.90
66088;DHT22;52872;52.994;6.940;2024-02-14T12:50:38;12.00;99.90
66088;DHT22;52872;52.994;6.940;2024-02-14T12:53:06;12.00;99.90
66088;DHT22;52872;52.994;6.940;2024-02-14T12:55:34;12.10;99.90
66088;DHT22;52872;52.994;6.940;2024-02-14T12:58:01;12.20;99.90
66088;DHT22;52872;52.994;6.940;2024-02-14T13:00:30;12.10;99.90
66088;DHT22;52872;52.994;6.940;2024-02-14T13:02:59;12.10;99.90
66088;DHT22;52872;52.994;6.940;2024-02-14T13:05:28;12.20;99.90
66088;DHT22;52872;52.994;6.940;2024-02-14T13:07:55;12.10;99.90
66088;DHT22;52872;52.994;6.940;2024-02-14T13:10:22;12.10;99.90
66088;DHT22;52872;52.994;6.940;2024-02-14T13:12:50;12.10;99.90
66088;DHT22;52872;52.994;6.940;2024-02-14T13:15:18;12.10;99.90
66088;DHT22;52872;52.994;6.940;2024-02-14T13:17:45;12.10;99.90
66088;DHT22;52872;52.994;6.940;2024-02-14T13:20:13;12.10;99.90
66088;DHT22;52872;52.994;6.940;2024-02-14T13:22:42;12.10;99.90
66088;DHT22;52872;52.994;6.940;2024-02-14T13:25:11;12.00;99.90
66088;DHT22;52872;52.994;6.940;2024-02-14T13:27:40;12.00;99.90
66088;DHT22;52872;52.994;6.940;2024-02-14T13:30:08;12.00;99.90
66088;DHT22;52872;52.994;6.940;2024-02-14T13:32:35;12.00;99.90
66088;DHT22;52872;52.994;6.940;2024-02-14T13:35:03;12.00;99.90
66088;DHT22;52872;52.994;6.940;2024-02-14T13:37:33;12.00;99.90
66088;DHT22;52872;52.994;6.940;2024-02-14T13:40:01;12.00;99.90
66088;DHT22;52872;52.994;6.940;2024-02-14T13:42:31;12.00;99.90
66088;DHT22;52872;52.994;6.940;2024-02-14T13:44:58;12.00;99.90
66088;DHT22;52872;52.994;6.940;2024-02-14T13:47:25;12.00;99.90
66088;DHT22;52872;52.994;6.940;2024-02-14T13:49:53;12.00;99.90
66088;DHT22;52872;52.994;6.940;2024-02-14T13:52:20;12.00;99.90
66088;DHT22;52872;52.994;6.940;2024-02-14T13:54:47;11.90;99.90
66088;DHT22;52872;52.994;6.940;2024-02-14T13:57:14;11.90;99.90
66088;DHT22;52872;52.994;6.940;2024-02-14T13:59:44;11.90;99.90
66088;DHT22;52872;52.994;6.940;2024-02-14T14:02:12;11.90;99.90
66088;DHT22;52872;52.994;6.940;2024-02-14T14:04:39;11.90;99.90
66088;DHT22;52872;52.994;6.940;2024-02-14T14:07:06;11.80;99.90
66088;DHT22;52872;52.994;6.940;2024-02-14T14:09:35;11.80;99.90
66088;DHT22;52872;52.994;6.940;2024-02-14T14:12:02;11.80;99.90
66088;DHT22;52872;52.994;6.940;2024-02-14T14:14:30;11.90;99.90
66088;DHT22;52872;52.994;6.940;2024-02-14T14:16:57;11.90;99.90
66088;DHT22;52872;52.994;6.940;2024-02-14T14:19:24;12.00;99.90
66088;DHT22;52872;52.994;6.940;2024-02-14T14:21:52;12.00;99.90
66088;DHT22;52872;52.994;6.940;2024-02-14T14:24:19;12.00;99.90
66088;DHT22;52872;52.994;6.940;2024-02-14T14:26:46;12.00;99.90
66088;DHT22;52872;52.994;6.940;2024-02-14T14:29:14;12.00;99.90
66088;DHT22;52872;52.994;6.940;2024-02-14T14:31:41;12.00;99.90
66088;DHT22;52872;52.994;6.940;2024-02-14T14:34:08;12.00;99.90
66088;DHT22;52872;52.994;6.940;2024-02-14T14:36:36;11.90;99.90
66088;DHT22;52872;52.994;6.940;2024-02-14T14:39:04;11.90;99.90
66088;DHT22;52872;52.994;6.940;2024-02-14T14:41:31;11.90;99.90
66088;DHT22;52872;52.994;6.940;2024-02-14T14:43:59;11.90;99.90
66088;DHT22;52872;52.994;6.940;2024-02-14T14:46:26;11.90;99.90
66088;DHT22;52872;52.994;6.940;2024-02-14T14:48:53;11.90;99.90
66088;DHT22;52872;52.994;6.940;2024-02-14T14:51:21;11.90;99.90
66088;DHT22;52872;52.994;6.940;2024-02-14T14:53:48;11.90;99.90
66088;DHT22;52872;52.994;6.940;2024-02-14T14:56:16;11.90;99.90
66088;DHT22;52872;52.994;6.940;2024-02-14T14:58:44;12.00;99.90
66088;DHT22;52872;52.994;6.940;2024-02-14T15:01:11;11.90;99.90
66088;DHT22;52872;52.994;6.940;2024-02-14T15:03:40;11.90;99.90
66088;DHT22;52872;52.994;6.940;2024-02-14T15:06:08;11.90;99.90
66088;DHT22;52872;52.994;6.940;2024-02-14T15:08:35;11.90;99.90
66088;DHT22;52872;52.994;6.940;2024-02-14T15:11:03;11.90;99.90
66088;DHT22;52872;52.994;6.940;2024-02-14T15:13:31;11.90;99.90
66088;DHT22;52872;52.994;6.940;2024-02-14T15:15:58;11.90;99.90
66088;DHT22;52872;52.994;6.940;2024-02-14T15:18:28;11.90;99.90
66088;DHT22;52872;52.994;6.940;2024-02-14T15:20:56;11.90;99.90
66088;DHT22;52872;52.994;6.940;2024-02-14T15:23:23;11.90;99.90
66088;DHT22;52872;52.994;6.940;2024-02-14T15:25:51;11.90;99.90
66088;DHT22;52872;52.994;6.940;2024-02-14T15:28:19;11.90;99.90
66088;DHT22;52872;52.994;6.940;2024-02-14T15:30:53;11.90;99.90
66088;DHT22;52872;52.994;6.940;2024-02-14T15:33:39;11.90;99.90
66088;DHT22;52872;52.994;6.940;2024-02-14T15:36:06;11.90;99.90
66088;DHT22;52872;52.994;6.940;2024-02-14T15:38:34;11.90;99.90
66088;DHT22;52872;52.994;6.940;2024-02-14T15:41:01;12.00;99.90
66088;DHT22;52872;52.994;6.940;2024-02-14T15:43:30;11.90;99.90
66088;DHT22;52872;52.994;6.940;2024-02-14T15:45:57;11.90;99.90